Time;durP1;ratioP1;P1;durP2;ratioP2;P2;SDS_P1;SDS_P2;PMS_P1;PMS_P2;Temp;Humidity;BMP_temperature;BMP_pressure;BME280_temperature;BME280_humidity;BME280_pressure;Samples;Min_cycle;Max_cycle;Signal;HPM_P1;HPM_P2
2024/03/05 00:02:14;;;;;;;5.90;3.60;;;8.50;99.90;;;;;;6154183;23;20238;-87
2024/03/05 00:04:39;;;;;;;12.80;4.80;;;8.40;99.90;;;;;;6177859;23;20209;-88
2024/03/05 00:07:07;;;;;;;6.80;2.83;;;8.30;99.90;;;;;;6153736;23;20199;-87
2024/03/05 00:09:33;;;;;;;12.83;3.07;;;8.60;99.90;;;;;;6154064;23;20675;-88
2024/03/05 00:11:59;;;;;;;6.87;4.50;;;8.60;99.90;;;;;;6153532;23;20201;-88
2024/03/05 00:14:25;;;;;;;12.07;4.30;;;8.50;99.90;;;;;;6154363;23;20499;-87
2024/03/05 00:16:51;;;;;;;9.73;3.20;;;8.60;99.90;;;;;;6152932;23;20198;-88
2024/03/05 00:19:17;;;;;;;4.37;3.30;;;8.40;99.90;;;;;;6153419;23;20531;-87
2024/03/05 00:21:43;;;;;;;9.30;4.30;;;8.50;99.90;;;;;;6153434;23;20215;-88
2024/03/05 00:24:08;;;;;;;7.30;3.97;;;8.40;99.90;;;;;;6153746;23;20502;-87
2024/03/05 00:26:34;;;;;;;20.90;6.73;;;8.20;99.90;;;;;;6154444;23;20175;-88
2024/03/05 00:29:02;;;;;;;6.43;3.40;;;8.20;99.90;;;;;;6153531;23;20643;-88
2024/03/05 00:31:31;;;;;;;12.30;4.17;;;8.50;99.90;;;;;;6155139;23;20206;-89
2024/03/05 00:33:57;;;;;;;16.77;3.73;;;8.20;99.90;;;;;;6155997;23;20270;-89
2024/03/05 00:36:27;;;;;;;16.27;4.03;;;8.20;99.90;;;;;;6155798;23;20209;-88
2024/03/05 00:38:52;;;;;;;5.80;3.10;;;8.20;99.90;;;;;;6155998;23;20182;-88
2024/03/05 00:41:18;;;;;;;4.00;2.67;;;8.60;99.90;;;;;;6155963;23;20202;-88
2024/03/05 00:43:45;;;;;;;28.37;2.40;;;8.30;99.90;;;;;;6154914;23;20195;-88
2024/03/05 00:46:10;;;;;;;9.67;2.97;;;8.50;99.90;;;;;;6154699;23;20198;-90
2024/03/05 00:48:36;;;;;;;10.23;3.60;;;8.20;99.90;;;;;;6155472;23;20648;-88
2024/03/05 00:51:02;;;;;;;6.37;4.47;;;8.30;99.90;;;;;;6155464;23;20225;-88
2024/03/05 00:53:28;;;;;;;4.67;4.13;;;8.30;99.90;;;;;;6156700;23;20210;-88
2024/03/05 00:55:55;;;;;;;9.17;3.37;;;8.30;99.90;;;;;;6155231;23;20207;-88
2024/03/05 00:58:21;;;;;;;12.77;3.47;;;8.20;99.90;;;;;;6155963;23;20198;-88
2024/03/05 01:00:47;;;;;;;10.23;4.33;;;8.40;99.90;;;;;;6179686;23;20712;-89
2024/03/05 01:03:13;;;;;;;9.07;4.57;;;8.50;99.90;;;;;;6155490;23;20197;-89
2024/03/05 01:05:39;;;;;;;6.20;3.33;;;8.50;99.90;;;;;;6155408;23;20258;-88
2024/03/05 01:08:05;;;;;;;10.03;4.03;;;8.10;99.90;;;;;;6156101;23;20531;-90
2024/03/05 01:10:31;;;;;;;9.20;5.17;;;8.50;99.90;;;;;;6180306;23;20198;-89
2024/03/05 01:12:56;;;;;;;5.23;3.20;;;8.20;99.90;;;;;;6180245;23;20995;-88
2024/03/05 01:15:23;;;;;;;7.73;3.27;;;8.40;99.90;;;;;;6155294;23;20195;-88
2024/03/05 01:17:49;;;;;;;12.87;5.37;;;8.60;99.90;;;;;;6180179;23;20259;-88
2024/03/05 01:20:18;;;;;;;6.53;6.00;;;8.10;99.90;;;;;;6155802;23;20543;-90
2024/03/05 01:22:47;;;;;;;13.57;5.83;;;8.20;99.90;;;;;;6155013;23;21022;-87
2024/03/05 01:25:16;;;;;;;9.97;4.27;;;8.60;99.90;;;;;;6179404;23;20229;-88
2024/03/05 01:27:42;;;;;;;7.93;5.07;;;8.10;99.90;;;;;;6155593;23;20213;-88
2024/03/05 01:30:11;;;;;;;13.07;4.77;;;8.10;99.90;;;;;;6154979;23;20238;-88
2024/03/05 01:32:41;;;;;;;3.57;2.03;;;8.20;99.90;;;;;;6156762;23;20174;-88
2024/03/05 01:35:10;;;;;;;12.03;5.07;;;8.20;99.90;;;;;;6129627;23;20190;-88
2024/03/05 01:37:40;;;;;;;7.50;2.80;;;8.50;99.90;;;;;;6154966;23;20209;-88
2024/03/05 01:40:08;;;;;;;13.37;4.70;;;8.50;99.90;;;;;;6179857;23;20194;-88
2024/03/05 01:42:34;;;;;;;6.77;3.83;;;8.50;99.90;;;;;;6154599;23;20217;-87
2024/03/05 01:45:00;;;;;;;3.47;2.97;;;8.40;99.90;;;;;;6179756;23;20197;-88
2024/03/05 01:47:27;;;;;;;11.23;4.57;;;8.30;99.90;;;;;;6155584;23;20548;-88
2024/03/05 01:49:54;;;;;;;7.00;3.37;;;8.50;99.90;;;;;;6154314;23;20214;-88
2024/03/05 01:52:23;;;;;;;11.97;3.37;;;8.40;99.90;;;;;;6154495;23;20202;-88
2024/03/05 01:54:53;;;;;;;7.27;2.80;;;8.20;99.90;;;;;;6155236;23;20218;-88
2024/03/05 01:57:21;;;;;;;5.30;3.53;;;8.50;99.90;;;;;;6155225;23;20245;-88
2024/03/05 01:59:47;;;;;;;4.50;2.07;;;8.30;99.90;;;;;;6179497;23;20167;-89
2024/03/05 02:02:13;;;;;;;6.00;4.33;;;8.30;99.90;;;;;;6180282;23;20309;-88
2024/03/05 02:04:39;;;;;;;6.13;2.73;;;8.30;99.90;;;;;;6154273;23;20202;-88
2024/03/05 02:07:06;;;;;;;2.40;1.93;;;8.50;99.90;;;;;;6154857;23;20199;-88
2024/03/05 02:09:32;;;;;;;4.37;3.90;;;8.30;99.90;;;;;;6178825;23;20206;-88
2024/03/05 02:11:59;;;;;;;14.50;4.03;;;8.20;99.90;;;;;;6178763;23;20203;-90
2024/03/05 02:14:29;;;;;;;5.27;3.87;;;8.20;99.90;;;;;;6155277;23;20174;-87
2024/03/05 02:16:57;;;;;;;10.67;2.10;;;8.30;99.90;;;;;;6178953;23;20199;-87
2024/03/05 02:19:23;;;;;;;12.63;3.77;;;8.50;99.90;;;;;;6154208;23;20675;-88
2024/03/05 02:21:48;;;;;;;7.53;2.90;;;8.50;99.90;;;;;;6153953;23;20218;-90
2024/03/05 02:24:14;;;;;;;5.37;2.53;;;8.60;99.90;;;;;;6179082;23;20205;-88
2024/03/05 02:26:40;;;;;;;7.80;3.47;;;8.30;99.90;;;;;;6154438;23;20183;-88
2024/03/05 02:29:09;;;;;;;3.40;3.03;;;8.60;99.90;;;;;;6155398;23;20179;-87
2024/03/05 02:31:38;;;;;;;4.63;4.07;;;8.40;99.90;;;;;;6179271;23;20198;-89
2024/03/05 02:34:04;;;;;;;7.63;3.47;;;8.40;99.90;;;;;;6154319;23;20206;-87
2024/03/05 02:36:30;;;;;;;3.77;3.20;;;8.60;99.90;;;;;;6154397;23;20528;-88
2024/03/05 02:38:56;;;;;;;12.70;3.70;;;8.40;99.90;;;;;;6154468;23;20182;-88
2024/03/05 02:41:22;;;;;;;8.10;5.07;;;8.50;99.90;;;;;;6154851;23;20564;-88
2024/03/05 02:43:47;;;;;;;10.23;4.17;;;8.30;99.90;;;;;;6153668;23;20229;-88
2024/03/05 02:46:13;;;;;;;8.73;2.40;;;8.70;99.90;;;;;;6178734;23;20222;-88
2024/03/05 02:48:39;;;;;;;3.90;3.60;;;8.60;99.90;;;;;;6153060;23;20198;-89
2024/03/05 02:51:08;;;;;;;10.30;4.40;;;8.50;99.90;;;;;;6154077;23;20217;-88
2024/03/05 02:53:34;;;;;;;5.67;3.03;;;8.50;99.90;;;;;;6179814;23;20202;-87
2024/03/05 02:56:02;;;;;;;3.80;3.27;;;8.80;99.90;;;;;;6153519;23;20639;-87
2024/03/05 02:58:28;;;;;;;7.90;4.87;;;8.50;99.90;;;;;;6153668;23;20233;-88
2024/03/05 03:00:55;;;;;;;5.03;4.33;;;8.50;99.90;;;;;;6153695;23;20414;-88
2024/03/05 03:03:20;;;;;;;4.73;3.47;;;8.80;99.90;;;;;;6154451;23;20251;-87
2024/03/05 03:05:46;;;;;;;6.03;3.40;;;8.80;99.90;;;;;;6153899;23;20528;-88
2024/03/05 03:08:12;;;;;;;7.00;4.10;;;8.70;99.90;;;;;;6154990;23;20203;-88
2024/03/05 03:10:38;;;;;;;3.33;2.67;;;8.50;99.90;;;;;;6153570;23;20202;-87
2024/03/05 03:13:04;;;;;;;9.83;4.40;;;8.70;99.90;;;;;;6153687;23;20206;-88
2024/03/05 03:15:30;;;;;;;4.77;2.27;;;8.50;99.90;;;;;;6178188;23;20608;-88
2024/03/05 03:17:57;;;;;;;5.87;4.03;;;8.90;99.90;;;;;;6153954;23;20174;-88
2024/03/05 03:20:23;;;;;;;6.63;3.90;;;8.90;99.90;;;;;;6179190;23;20620;-88
2024/03/05 03:22:49;;;;;;;5.87;4.20;;;8.90;99.90;;;;;;6153100;23;20224;-87
2024/03/05 03:25:15;;;;;;;9.23;4.70;;;8.60;99.90;;;;;;6153987;23;20210;-88
2024/03/05 03:27:40;;;;;;;8.20;4.30;;;9.00;99.90;;;;;;6177732;23;20213;-89
2024/03/05 03:30:07;;;;;;;4.63;3.07;;;8.90;99.90;;;;;;6153953;23;20255;-88
2024/03/05 03:32:34;;;;;;;2.40;2.20;;;8.90;99.90;;;;;;6179130;23;20214;-88
2024/03/05 03:35:04;;;;;;;9.00;3.90;;;8.50;99.90;;;;;;6177811;23;20250;-87
2024/03/05 03:37:30;;;;;;;4.57;3.30;;;8.80;99.90;;;;;;6178418;23;20274;-87
2024/03/05 03:39:56;;;;;;;8.03;4.53;;;8.90;99.90;;;;;;6139937;23;20207;-88
2024/03/05 03:42:22;;;;;;;6.53;3.80;;;8.70;99.90;;;;;;6178787;23;20590;-88
2024/03/05 03:44:48;;;;;;;3.40;1.83;;;8.70;99.90;;;;;;6154051;23;20543;-88
2024/03/05 03:47:14;;;;;;;7.90;3.87;;;8.90;99.90;;;;;;6154163;23;20204;-88
2024/03/05 03:49:47;;;;;;;6.10;3.83;;;8.70;99.90;;;;;;6153008;23;20198;-88
2024/03/05 03:52:14;;;;;;;10.20;3.70;;;8.50;99.90;;;;;;6154069;23;20206;-87
2024/03/05 03:54:40;;;;;;;7.00;4.63;;;8.80;99.90;;;;;;6178379;23;20683;-89
2024/03/05 03:57:07;;;;;;;11.30;4.50;;;8.90;99.90;;;;;;6153190;23;20206;-88
2024/03/05 03:59:33;;;;;;;7.93;3.70;;;8.70;99.90;;;;;;6154377;23;20241;-88
2024/03/05 04:01:59;;;;;;;10.47;3.87;;;8.50;99.90;;;;;;6153635;23;20309;-87
2024/03/05 04:04:24;;;;;;;4.70;3.83;;;8.70;99.90;;;;;;6177647;23;20297;-89
2024/03/05 04:06:50;;;;;;;6.43;4.13;;;8.70;99.90;;;;;;6153090;23;20317;-88
2024/03/05 04:09:16;;;;;;;3.10;2.87;;;8.40;99.90;;;;;;6153353;23;20206;-87
2024/03/05 04:11:42;;;;;;;8.20;3.77;;;8.50;99.90;;;;;;6153816;23;20486;-88
2024/03/05 04:14:08;;;;;;;12.37;4.27;;;8.40;99.90;;;;;;6154285;23;20179;-87
2024/03/05 04:16:37;;;;;;;7.97;2.97;;;8.80;99.90;;;;;;6153017;23;20213;-88
2024/03/05 04:19:03;;;;;;;5.07;2.87;;;8.60;99.90;;;;;;6153514;23;20206;-88
2024/03/05 04:21:29;;;;;;;5.53;3.30;;;8.40;99.90;;;;;;6153704;23;20220;-87
2024/03/05 04:23:55;;;;;;;8.37;5.50;;;8.50;99.90;;;;;;6153818;23;20167;-87
2024/03/05 04:26:23;;;;;;;8.03;3.67;;;8.50;99.90;;;;;;6154271;23;20175;-88
2024/03/05 04:29:00;;;;;;;6.00;4.20;;;8.60;99.90;;;;;;6177404;23;20289;-89
2024/03/05 04:31:30;;;;;;;8.17;4.23;;;8.60;99.90;;;;;;6154066;23;20202;-87
2024/03/05 04:33:59;;;;;;;6.47;2.97;;;8.50;99.90;;;;;;6154252;23;20202;-88
2024/03/05 04:36:25;;;;;;;13.50;5.03;;;8.50;99.90;;;;;;6153621;23;20214;-87
2024/03/05 04:38:52;;;;;;;7.07;3.77;;;8.80;99.90;;;;;;6153392;23;20170;-88
2024/03/05 04:41:17;;;;;;;6.07;4.33;;;8.80;99.90;;;;;;6154151;23;20652;-88
2024/03/05 04:43:43;;;;;;;6.67;3.67;;;8.60;99.90;;;;;;6152889;23;20210;-87
2024/03/05 04:46:11;;;;;;;5.40;4.13;;;8.50;99.90;;;;;;6177848;23;20202;-87
2024/03/05 04:48:38;;;;;;;13.83;5.40;;;8.80;99.90;;;;;;6153600;23;20635;-90
2024/03/05 04:51:07;;;;;;;3.97;3.60;;;8.60;99.90;;;;;;6177987;23;20277;-87
2024/03/05 04:53:35;;;;;;;11.53;3.07;;;8.60;99.90;;;;;;6154762;23;20178;-88
2024/03/05 04:56:02;;;;;;;9.03;5.73;;;8.90;99.90;;;;;;6153587;23;20581;-88
2024/03/05 04:58:28;;;;;;;12.43;3.40;;;8.70;99.90;;;;;;6153435;23;20551;-90
2024/03/05 05:00:54;;;;;;;4.47;3.27;;;8.90;99.90;;;;;;6178272;23;20203;-88
2024/03/05 05:03:20;;;;;;;5.47;3.77;;;8.60;99.90;;;;;;6153299;23;20719;-88
2024/03/05 05:05:46;;;;;;;7.17;3.63;;;8.70;99.90;;;;;;6152404;23;20174;-88
2024/03/05 05:08:12;;;;;;;10.37;5.07;;;8.90;99.90;;;;;;6179109;23;20171;-87
2024/03/05 05:10:38;;;;;;;9.27;3.73;;;8.60;99.90;;;;;;6152455;23;20265;-89
2024/03/05 05:13:05;;;;;;;10.83;6.17;;;9.00;99.90;;;;;;6153208;23;20206;-88
2024/03/05 05:15:31;;;;;;;9.87;7.03;;;9.00;99.90;;;;;;6153402;23;20201;-88
2024/03/05 05:18:00;;;;;;;8.20;5.30;;;8.90;99.90;;;;;;6154913;23;20608;-89
2024/03/05 05:20:27;;;;;;;9.63;4.43;;;8.90;99.90;;;;;;6180758;23;20214;-88
2024/03/05 05:22:53;;;;;;;6.37;4.70;;;8.90;99.90;;;;;;6155032;23;20260;-89
2024/03/05 05:25:19;;;;;;;28.27;7.57;;;8.70;99.90;;;;;;6154618;23;20273;-88
2024/03/05 05:27:49;;;;;;;12.47;7.07;;;8.80;99.90;;;;;;6154675;23;20209;-88
2024/03/05 05:30:20;;;;;;;10.50;5.27;;;8.70;99.90;;;;;;6179616;23;20221;-87
2024/03/05 05:32:49;;;;;;;14.90;4.10;;;8.80;99.90;;;;;;6180020;23;20244;-88
2024/03/05 05:35:18;;;;;;;8.63;5.77;;;9.00;99.90;;;;;;6156364;23;20229;-88
2024/03/05 05:37:44;;;;;;;13.93;6.33;;;9.00;99.90;;;;;;6154800;23;20253;-88
2024/03/05 05:40:11;;;;;;;6.73;4.53;;;8.70;99.90;;;;;;6154718;23;20202;-89
2024/03/05 05:42:40;;;;;;;9.07;4.40;;;8.80;99.90;;;;;;6179578;23;20238;-88
2024/03/05 05:45:08;;;;;;;19.53;4.90;;;8.80;99.90;;;;;;6179629;23;20588;-88
2024/03/05 05:47:57;;;;;;;8.87;3.83;;;9.10;99.90;;;;;;6155943;23;20186;-88
2024/03/05 05:50:28;;;;;;;14.47;6.27;;;9.10;99.90;;;;;;6179793;23;20195;-88
2024/03/05 05:52:55;;;;;;;12.83;6.97;;;8.90;99.90;;;;;;6155551;23;20209;-88
2024/03/05 05:55:24;;;;;;;3.67;2.93;;;9.10;99.90;;;;;;6154702;23;20221;-88
2024/03/05 05:57:51;;;;;;;9.30;3.17;;;8.90;99.90;;;;;;6154184;23;20668;-88
2024/03/05 06:00:23;;;;;;;8.00;5.10;;;9.00;99.90;;;;;;6154534;23;20198;-88
2024/03/05 06:02:55;;;;;;;19.80;6.73;;;8.70;99.90;;;;;;6155101;23;20516;-88
2024/03/05 06:05:28;;;;;;;10.80;3.97;;;8.90;99.90;;;;;;6180083;23;20177;-87
2024/03/05 06:07:55;;;;;;;12.80;6.73;;;8.90;99.90;;;;;;6179551;23;20663;-88
2024/03/05 06:10:24;;;;;;;8.10;3.83;;;9.10;99.90;;;;;;6180150;23;20777;-88
2024/03/05 06:12:50;;;;;;;10.27;5.67;;;8.90;99.90;;;;;;6154957;23;20212;-88
2024/03/05 06:15:19;;;;;;;10.60;6.47;;;9.00;99.90;;;;;;6178870;23;20195;-89
2024/03/05 06:17:46;;;;;;;7.30;3.93;;;9.00;99.90;;;;;;6178565;23;20171;-89
2024/03/05 06:20:13;;;;;;;7.03;4.60;;;8.70;99.90;;;;;;6155097;23;20163;-88
2024/03/05 06:22:40;;;;;;;7.40;4.47;;;8.90;99.90;;;;;;6180959;23;20232;-88
2024/03/05 06:25:11;;;;;;;16.77;6.73;;;8.80;99.90;;;;;;6178634;23;20413;-88
2024/03/05 06:27:38;;;;;;;25.87;5.90;;;8.60;99.90;;;;;;6180389;23;20903;-89
2024/03/05 06:30:08;;;;;;;13.83;5.23;;;9.00;99.90;;;;;;6154062;23;20734;-89
2024/03/05 06:32:46;;;;;;;13.23;5.97;;;9.00;99.90;;;;;;6154744;23;20233;-89
2024/03/05 06:35:23;;;;;;;7.90;4.70;;;8.70;99.90;;;;;;6155779;23;20195;-88
2024/03/05 06:37:49;;;;;;;19.03;6.67;;;8.60;99.90;;;;;;6154903;23;20305;-88
2024/03/05 06:40:19;;;;;;;14.07;5.73;;;8.80;99.90;;;;;;6154026;23;20209;-88
2024/03/05 06:42:52;;;;;;;9.33;6.53;;;9.00;99.90;;;;;;6179346;23;20679;-88
2024/03/05 06:45:27;;;;;;;17.93;8.20;;;8.70;99.90;;;;;;6156075;23;20704;-88
2024/03/05 06:48:00;;;;;;;24.23;8.47;;;8.70;99.90;;;;;;6156331;23;20238;-87
2024/03/05 06:50:34;;;;;;;10.53;6.40;;;8.70;99.90;;;;;;6157693;23;20272;-87
2024/03/05 06:58:41;;;;;;;13.67;6.70;;;8.60;99.90;;;;;;6178681;23;20671;-88
2024/03/05 07:01:08;;;;;;;26.77;13.67;;;9.00;99.90;;;;;;6178598;23;20651;-87
2024/03/05 07:03:38;;;;;;;17.63;8.10;;;8.90;99.90;;;;;;6178444;23;20238;-88
2024/03/05 07:06:09;;;;;;;18.10;8.67;;;8.80;99.90;;;;;;6153446;23;20533;-87
2024/03/05 07:08:38;;;;;;;22.33;9.03;;;8.70;99.90;;;;;;6154515;23;20155;-88
2024/03/05 07:11:08;;;;;;;25.87;10.73;;;8.80;99.90;;;;;;6152440;23;20199;-87
2024/03/05 07:13:40;;;;;;;18.70;10.13;;;9.10;99.90;;;;;;6152407;23;20659;-88
2024/03/05 07:16:07;;;;;;;20.20;13.17;;;9.00;99.90;;;;;;6174434;23;20616;-87
2024/03/05 07:18:36;;;;;;;15.77;10.20;;;9.10;99.90;;;;;;6151214;23;20352;-88
2024/03/05 07:21:03;;;;;;;20.57;10.57;;;9.10;99.90;;;;;;6150821;23;20202;-88
2024/03/05 07:23:29;;;;;;;12.77;9.13;;;9.30;99.90;;;;;;6175874;23;20210;-88
2024/03/05 07:25:56;;;;;;;19.00;10.50;;;8.80;99.90;;;;;;6150058;23;20213;-89
2024/03/05 07:28:22;;;;;;;28.73;10.30;;;9.30;99.90;;;;;;6149620;23;20224;-88
2024/03/05 07:30:47;;;;;;;31.60;15.10;;;9.00;99.90;;;;;;6148746;23;20726;-88
2024/03/05 07:33:13;;;;;;;25.83;12.10;;;9.40;99.90;;;;;;6173509;23;20209;-89
2024/03/05 07:35:42;;;;;;;22.80;10.93;;;9.20;99.90;;;;;;6171299;23;20253;-89
2024/03/05 07:38:08;;;;;;;18.87;10.53;;;9.40;99.90;;;;;;6147863;23;20170;-88
2024/03/05 07:40:34;;;;;;;21.97;11.03;;;9.20;99.90;;;;;;6153716;23;20199;-89
2024/03/05 07:43:09;;;;;;;33.77;16.30;;;9.20;99.90;;;;;;6178222;23;20664;-89
2024/03/05 07:45:35;;;;;;;29.40;10.13;;;9.40;99.90;;;;;;6179290;23;20824;-89
2024/03/05 07:48:01;;;;;;;28.97;12.77;;;9.30;99.90;;;;;;6153391;23;20206;-88
2024/03/05 07:50:28;;;;;;;16.77;11.00;;;9.10;99.90;;;;;;6154090;23;20237;-86
2024/03/05 07:52:57;;;;;;;37.50;13.87;;;9.20;99.90;;;;;;6153346;23;20214;-87
2024/03/05 07:55:23;;;;;;;19.10;10.97;;;9.00;99.90;;;;;;6178589;23;20593;-88
2024/03/05 07:57:52;;;;;;;21.70;11.87;;;9.30;99.90;;;;;;6153336;23;20293;-87
2024/03/05 08:00:22;;;;;;;22.57;10.87;;;9.20;99.90;;;;;;6177860;23;20198;-88
2024/03/05 08:02:50;;;;;;;12.10;8.07;;;9.30;99.90;;;;;;6153771;23;20525;-88
2024/03/05 08:05:18;;;;;;;33.60;11.07;;;8.80;99.90;;;;;;6154511;23;20612;-89
2024/03/05 08:07:53;;;;;;;19.73;10.33;;;8.80;99.90;;;;;;6153160;23;20194;-87
2024/03/05 08:10:19;;;;;;;17.87;11.40;;;9.10;99.90;;;;;;6178060;23;20317;-88
2024/03/05 08:12:47;;;;;;;18.70;12.80;;;8.80;99.90;;;;;;6153604;23;20582;-88
2024/03/05 08:15:18;;;;;;;13.03;10.60;;;9.00;99.90;;;;;;6177686;23;20213;-87
2024/03/05 08:17:46;;;;;;;16.53;10.20;;;9.10;99.90;;;;;;6154543;23;20966;-87
2024/03/05 08:20:25;;;;;;;14.57;6.83;;;9.10;99.90;;;;;;6154395;23;20171;-87
2024/03/05 08:22:51;;;;;;;21.53;8.70;;;9.00;99.90;;;;;;6153990;23;20213;-88
2024/03/05 08:25:18;;;;;;;14.43;8.33;;;8.80;99.90;;;;;;6147347;23;20307;-89
2024/03/05 08:27:54;;;;;;;22.40;10.47;;;8.90;99.90;;;;;;6166435;23;20202;-89
2024/03/05 08:30:22;;;;;;;22.83;6.40;;;8.40;99.90;;;;;;6142622;23;20655;-89
2024/03/05 08:32:51;;;;;;;10.33;9.23;;;8.30;99.90;;;;;;6142360;23;20178;-89
2024/03/05 08:35:17;;;;;;;12.53;9.40;;;8.70;99.90;;;;;;6142909;23;20175;-89
2024/03/05 08:37:47;;;;;;;14.47;8.23;;;8.30;99.90;;;;;;6142352;23;20656;-89
2024/03/05 08:40:15;;;;;;;7.00;5.83;;;8.50;99.90;;;;;;6166839;23;20377;-88
2024/03/05 08:42:45;;;;;;;14.53;9.43;;;8.70;99.90;;;;;;6143101;23;20225;-90
2024/03/05 08:45:12;;;;;;;25.27;9.23;;;8.40;99.90;;;;;;6143283;23;20206;-88
2024/03/05 08:47:39;;;;;;;10.63;8.43;;;8.50;99.90;;;;;;6167619;23;20182;-90
2024/03/05 08:50:06;;;;;;;13.00;7.67;;;8.60;99.90;;;;;;6166552;23;20199;-90
2024/03/05 08:52:32;;;;;;;14.80;7.13;;;8.30;99.90;;;;;;6143007;23;20995;-89
2024/03/05 08:55:00;;;;;;;15.30;8.47;;;8.50;99.90;;;;;;6172686;23;20213;-88
2024/03/05 08:57:26;;;;;;;19.90;8.27;;;8.70;99.90;;;;;;6179920;23;20210;-89
2024/03/05 08:59:52;;;;;;;13.77;6.83;;;8.30;99.90;;;;;;6155808;23;20547;-88
2024/03/05 09:02:18;;;;;;;14.03;7.93;;;8.20;99.90;;;;;;6156216;23;20257;-89
2024/03/05 09:04:45;;;;;;;8.67;7.37;;;8.00;99.90;;;;;;6155429;23;20198;-88
2024/03/05 09:07:11;;;;;;;30.20;7.57;;;8.40;99.90;;;;;;6155245;23;20203;-88
2024/03/05 09:09:37;;;;;;;12.50;8.13;;;8.20;99.90;;;;;;6155258;23;20225;-87
2024/03/05 09:12:03;;;;;;;7.23;5.67;;;7.90;99.90;;;;;;6154640;23;20237;-88
2024/03/05 09:14:28;;;;;;;13.47;6.73;;;7.90;99.90;;;;;;6155957;23;20171;-87
2024/03/05 09:16:54;;;;;;;10.00;8.87;;;8.20;99.90;;;;;;6153326;23;20198;-87
2024/03/05 09:19:23;;;;;;;7.30;6.37;;;7.90;99.90;;;;;;6179052;23;20229;-86
2024/03/05 09:21:50;;;;;;;9.97;5.27;;;8.30;99.90;;;;;;6179620;23;20218;-88
2024/03/05 09:24:16;;;;;;;7.60;6.90;;;8.20;99.90;;;;;;6179349;23;20210;-89
2024/03/05 09:26:43;;;;;;;13.87;8.20;;;8.40;99.90;;;;;;6179155;23;20182;-88
2024/03/05 09:29:34;;;;;;;7.10;6.00;;;8.20;99.90;;;;;;6155753;23;20167;-89
2024/03/05 09:32:19;;;;;;;9.37;8.43;;;8.10;99.90;;;;;;6011998;23;20288;-88
2024/03/05 09:34:45;;;;;;;9.20;8.13;;;8.00;99.90;;;;;;6098356;23;20170;-87
2024/03/05 09:37:11;;;;;;;17.23;10.00;;;8.10;99.90;;;;;;6153790;23;20702;-89
2024/03/05 09:39:37;;;;;;;12.93;7.83;;;8.60;99.90;;;;;;6142225;23;20265;-91
2024/03/05 09:42:03;;;;;;;7.70;6.67;;;8.30;99.90;;;;;;6155011;23;20210;-89
2024/03/05 09:44:32;;;;;;;15.70;8.40;;;8.20;99.90;;;;;;6156427;23;20175;-89
2024/03/05 09:46:59;;;;;;;14.17;5.93;;;8.60;99.90;;;;;;6179559;23;20217;-88
2024/03/05 09:49:27;;;;;;;9.87;7.80;;;8.20;99.90;;;;;;6180371;23;20660;-88
2024/03/05 09:51:53;;;;;;;8.27;7.57;;;8.60;99.90;;;;;;6156157;23;20360;-89
2024/03/05 09:54:19;;;;;;;12.80;8.87;;;8.20;99.90;;;;;;6156065;23;20198;-89
2024/03/05 09:56:45;;;;;;;5.23;4.83;;;8.30;99.90;;;;;;6154184;23;20262;-89
2024/03/05 09:59:13;;;;;;;19.03;9.80;;;8.20;99.90;;;;;;6151277;23;20481;-88
2024/03/05 10:01:46;;;;;;;15.63;6.77;;;8.20;99.90;;;;;;6149233;23;20217;-89
2024/03/05 10:04:15;;;;;;;28.77;7.93;;;8.20;99.90;;;;;;6150561;23;20277;-89
2024/03/05 10:06:48;;;;;;;13.77;7.80;;;8.60;99.90;;;;;;6173748;23;20194;-89
2024/03/05 10:09:17;;;;;;;11.37;6.87;;;8.50;99.90;;;;;;6150998;23;20218;-89
2024/03/05 10:11:44;;;;;;;10.83;9.80;;;8.40;99.90;;;;;;6151088;23;20206;-88
2024/03/05 10:14:10;;;;;;;8.50;6.80;;;8.30;99.90;;;;;;6150371;23;20175;-88
2024/03/05 10:16:40;;;;;;;16.83;8.10;;;8.60;99.90;;;;;;6177988;23;20682;-89
2024/03/05 10:19:19;;;;;;;14.13;6.63;;;8.70;99.90;;;;;;6179088;23;20202;-87
2024/03/05 10:21:49;;;;;;;13.33;7.67;;;8.40;99.90;;;;;;6179983;23;20210;-88
2024/03/05 10:24:29;;;;;;;25.77;8.70;;;8.60;99.90;;;;;;6155249;23;20814;-88
2024/03/05 10:26:55;;;;;;;18.07;6.00;;;8.50;99.90;;;;;;6177531;23;20165;-88
2024/03/05 10:29:33;;;;;;;9.17;5.07;;;8.40;99.90;;;;;;6147592;23;20167;-89
2024/03/05 10:32:04;;;;;;;17.83;8.27;;;8.30;99.90;;;;;;6173086;23;20217;-88
2024/03/05 10:34:32;;;;;;;15.10;5.80;;;8.50;99.90;;;;;;6149852;23;20687;-89
2024/03/05 10:37:07;;;;;;;7.97;7.00;;;8.10;99.90;;;;;;6154042;23;20231;-88
2024/03/05 10:39:38;;;;;;;13.03;6.13;;;8.20;99.90;;;;;;6178903;23;20266;-87
2024/03/05 10:42:06;;;;;;;13.80;8.80;;;8.30;99.90;;;;;;6154369;23;20217;-86
2024/03/05 10:44:36;;;;;;;9.87;6.60;;;7.90;99.90;;;;;;6155174;23;20607;-87
2024/03/05 10:47:03;;;;;;;10.33;8.07;;;8.20;99.90;;;;;;6154116;23;20210;-89
2024/03/05 10:49:29;;;;;;;7.03;5.60;;;8.00;99.90;;;;;;6179141;23;20664;-88
2024/03/05 10:51:58;;;;;;;9.17;8.27;;;7.90;99.90;;;;;;6154362;23;20206;-88
2024/03/05 10:54:26;;;;;;;16.97;7.83;;;7.90;99.90;;;;;;6179190;23;20202;-88
2024/03/05 10:56:52;;;;;;;6.07;5.33;;;8.10;99.90;;;;;;6178652;23;20337;-88
2024/03/05 10:59:40;;;;;;;8.93;5.70;;;8.00;99.90;;;;;;6154732;23;20203;-89
2024/03/05 11:02:11;;;;;;;7.43;6.83;;;7.90;99.90;;;;;;6158433;23;20674;-87
2024/03/05 11:04:42;;;;;;;6.27;5.20;;;8.00;99.90;;;;;;6178533;23;20260;-89
2024/03/05 11:07:10;;;;;;;10.77;5.93;;;7.90;99.90;;;;;;6153958;23;20202;-87
2024/03/05 11:09:38;;;;;;;25.07;7.67;;;7.90;99.90;;;;;;6177840;23;20198;-86
2024/03/05 11:12:17;;;;;;;12.93;5.47;;;7.90;99.90;;;;;;6154787;23;20209;-88
2024/03/05 11:14:45;;;;;;;12.40;6.47;;;7.90;99.90;;;;;;6178876;23;20171;-87
2024/03/05 11:17:11;;;;;;;11.43;4.73;;;8.10;99.90;;;;;;6155083;23;20262;-87
2024/03/05 11:19:39;;;;;;;5.60;4.43;;;8.00;99.90;;;;;;6154369;23;20222;-88
2024/03/05 11:22:26;;;;;;;10.63;9.27;;;8.00;99.90;;;;;;6178789;23;20579;-86
2024/03/05 11:25:01;;;;;;;13.77;7.17;;;8.30;99.90;;;;;;6179454;23;20202;-88
2024/03/05 11:27:33;;;;;;;9.53;5.47;;;8.40;99.90;;;;;;6178762;23;20277;-87
2024/03/05 11:30:06;;;;;;;20.00;7.07;;;8.20;99.90;;;;;;6154539;23;20659;-87
2024/03/05 11:32:37;;;;;;;8.17;5.53;;;8.10;99.90;;;;;;6155437;23;20166;-87
2024/03/05 11:35:04;;;;;;;24.70;9.73;;;8.30;99.90;;;;;;6178405;23;20217;-88
2024/03/05 11:37:49;;;;;;;18.83;5.77;;;8.60;99.90;;;;;;6153788;23;20745;-87
2024/03/05 11:40:17;;;;;;;17.67;7.60;;;8.40;99.90;;;;;;6178121;23;20210;-86
2024/03/05 11:42:46;;;;;;;12.90;7.67;;;8.30;99.90;;;;;;6154209;23;20257;-86
2024/03/05 11:45:51;;;;;;;11.70;6.50;;;8.60;99.90;;;;;;6150188;23;20229;-87
2024/03/05 11:48:22;;;;;;;5.23;4.23;;;8.40;99.90;;;;;;6176687;23;20212;-88
2024/03/05 11:50:52;;;;;;;21.30;9.77;;;8.40;99.90;;;;;;6153771;23;20162;-88
2024/03/05 11:53:22;;;;;;;8.77;7.97;;;8.50;99.90;;;;;;6178302;23;20261;-87
2024/03/05 11:55:51;;;;;;;10.63;5.13;;;8.50;99.90;;;;;;6117718;23;20781;-87
2024/03/05 11:58:24;;;;;;;9.63;7.50;;;8.20;99.90;;;;;;6152795;23;20652;-88
2024/03/05 12:01:02;;;;;;;21.17;7.07;;;8.10;99.90;;;;;;6152226;23;20210;-88
2024/03/05 12:03:29;;;;;;;10.07;6.43;;;8.40;99.90;;;;;;6164371;23;20948;-87
2024/03/05 12:05:55;;;;;;;5.50;4.97;;;8.00;99.90;;;;;;6142745;23;20591;-89
2024/03/05 12:08:24;;;;;;;9.47;4.93;;;8.20;99.90;;;;;;6142655;23;20175;-90
2024/03/05 12:11:02;;;;;;;6.30;5.57;;;8.20;99.90;;;;;;6142522;23;20206;-88
2024/03/05 12:13:31;;;;;;;7.93;6.00;;;8.00;99.90;;;;;;6169025;23;20944;-88
2024/03/05 12:16:11;;;;;;;7.63;7.07;;;8.10;99.90;;;;;;6166701;23;20293;-89
2024/03/05 12:18:43;;;;;;;7.20;5.60;;;8.10;99.90;;;;;;6146819;23;20297;-90
2024/03/05 12:21:14;;;;;;;8.10;7.40;;;8.30;99.90;;;;;;6156340;23;20210;-88
2024/03/05 12:23:48;;;;;;;9.47;7.57;;;8.00;99.90;;;;;;6164014;23;20162;-89
2024/03/05 12:26:14;;;;;;;6.37;3.87;;;8.20;99.90;;;;;;6168909;23;20263;-89
2024/03/05 12:28:41;;;;;;;17.13;6.83;;;8.00;99.90;;;;;;6143432;23;20274;-89
2024/03/05 12:31:09;;;;;;;9.93;7.67;;;8.10;99.90;;;;;;6168876;23;20209;-88
2024/03/05 12:33:39;;;;;;;7.40;6.03;;;8.10;99.90;;;;;;6144326;23;20213;-87
2024/03/05 12:36:13;;;;;;;8.50;6.63;;;8.20;99.90;;;;;;6133502;23;20206;-88
2024/03/05 12:38:39;;;;;;;13.83;9.03;;;8.10;99.90;;;;;;6147282;23;20170;-89
2024/03/05 12:41:05;;;;;;;12.47;6.17;;;8.00;99.90;;;;;;6106399;23;20348;-88
2024/03/05 12:43:33;;;;;;;5.90;5.50;;;7.90;99.90;;;;;;6145930;23;20233;-89
2024/03/05 12:46:02;;;;;;;17.40;7.03;;;8.00;99.90;;;;;;6146637;23;20410;-88
2024/03/05 12:48:34;;;;;;;13.17;8.37;;;8.20;99.90;;;;;;6144620;23;20273;-88
2024/03/05 12:51:00;;;;;;;16.93;9.70;;;7.90;99.90;;;;;;6174606;23;20540;-88
2024/03/05 12:53:27;;;;;;;9.87;7.73;;;8.00;99.90;;;;;;6179848;23;20166;-87
2024/03/05 12:56:02;;;;;;;9.97;7.90;;;7.80;99.90;;;;;;6164788;23;20207;-88
2024/03/05 12:58:42;;;;;;;8.70;6.23;;;8.00;99.90;;;;;;6153619;23;20289;-88
2024/03/05 13:01:10;;;;;;;7.47;5.17;;;8.00;99.90;;;;;;6178765;23;20209;-88
2024/03/05 13:03:39;;;;;;;8.67;6.07;;;8.10;99.90;;;;;;6178892;23;20210;-88